Time;durP1;ratioP1;P1;durP2;ratioP2;P2;SDS_P1;SDS_P2;PMS_P1;PMS_P2;Temp;Humidity;BMP_temperature;BMP_pressure;BME280_temperature;BME280_humidity;BME280_pressure;Samples;Min_cycle;Max_cycle;Signal;HPM_P1;HPM_P2
2022/12/28 00:01:09;;;;;;;0.80;0.80;;;-4.90;99.90;;;;;;5091601;28;20196;-72
2022/12/28 00:03:35;;;;;;;0.90;0.90;;;-5.00;99.90;;;;;;5073035;28;20200;-72
2022/12/28 00:06:01;;;;;;;0.90;0.90;;;-5.10;99.90;;;;;;5091254;28;20192;-73
2022/12/28 00:08:27;;;;;;;0.80;0.80;;;-5.10;99.90;;;;;;5072672;28;20196;-72
2022/12/28 00:11:01;;;;;;;0.80;0.80;;;-5.10;99.90;;;;;;5091388;28;20198;-72
2022/12/28 00:13:28;;;;;;;0.70;0.70;;;-5.10;99.90;;;;;;5090863;28;20565;-72
2022/12/28 00:15:57;;;;;;;0.80;0.80;;;-5.00;99.90;;;;;;5073451;28;20208;-72
2022/12/28 00:18:23;;;;;;;0.80;0.80;;;-4.90;99.90;;;;;;5072847;28;20245;-73
2022/12/28 00:20:56;;;;;;;0.80;0.80;;;-4.90;99.90;;;;;;5091095;28;20196;-72
2022/12/28 00:23:22;;;;;;;0.73;0.73;;;-4.80;99.90;;;;;;5090891;28;20199;-73
2022/12/28 00:25:48;;;;;;;0.70;0.70;;;-4.80;99.90;;;;;;5091235;28;20556;-73
2022/12/28 00:28:13;;;;;;;0.80;0.80;;;-4.80;99.90;;;;;;5073029;28;20298;-72
2022/12/28 00:30:39;;;;;;;0.80;0.80;;;-4.80;99.90;;;;;;5072869;28;20208;-72
2022/12/28 00:33:05;;;;;;;0.80;0.80;;;-4.80;99.90;;;;;;5091132;28;20192;-73
2022/12/28 00:35:30;;;;;;;0.70;0.70;;;-4.80;99.90;;;;;;5090822;28;20204;-73
2022/12/28 00:37:56;;;;;;;0.70;0.70;;;-4.90;99.90;;;;;;5069478;28;20693;-73
2022/12/28 00:40:27;;;;;;;0.80;0.80;;;-5.00;99.90;;;;;;5070705;28;20189;-73
2022/12/28 00:42:52;;;;;;;0.80;0.80;;;-5.10;99.90;;;;;;5073295;28;20192;-72
2022/12/28 00:45:18;;;;;;;0.80;0.80;;;-5.00;99.90;;;;;;5072855;28;20283;-73
2022/12/28 00:47:44;;;;;;;0.82;0.82;;;-5.00;99.90;;;;;;5091146;28;20199;-72
2022/12/28 00:50:10;;;;;;;0.80;0.80;;;-5.00;99.90;;;;;;5091184;28;20283;-72
2022/12/28 00:52:36;;;;;;;0.80;0.80;;;-5.10;99.90;;;;;;5073000;28;20269;-73
2022/12/28 00:55:02;;;;;;;0.80;0.80;;;-5.20;99.90;;;;;;5094766;28;20269;-72
2022/12/28 00:57:29;;;;;;;0.80;0.80;;;-5.30;99.90;;;;;;5094431;28;20189;-73
2022/12/28 00:59:55;;;;;;;0.80;0.80;;;-5.50;99.90;;;;;;5095156;28;20200;-73
2022/12/28 01:02:20;;;;;;;0.75;0.75;;;-5.60;99.90;;;;;;5076255;28;20196;-73
2022/12/28 01:04:49;;;;;;;0.80;0.80;;;-5.60;99.90;;;;;;5094220;28;20227;-73
2022/12/28 01:07:15;;;;;;;0.80;0.80;;;-5.70;99.90;;;;;;5094401;28;20270;-74
2022/12/28 01:09:43;;;;;;;0.90;0.90;;;-5.70;99.90;;;;;;5087263;28;20394;-74
2022/12/28 01:12:09;;;;;;;0.80;0.80;;;-5.70;99.90;;;;;;5095030;28;20211;-74
2022/12/28 01:14:34;;;;;;;0.67;0.67;;;-5.70;99.90;;;;;;5094302;28;20184;-74
2022/12/28 01:17:00;;;;;;;0.70;0.70;;;-5.60;99.90;;;;;;5094432;28;20242;-73
2022/12/28 01:19:26;;;;;;;0.80;0.80;;;-5.50;99.90;;;;;;5075830;28;20200;-73
2022/12/28 01:21:52;;;;;;;0.80;0.80;;;-5.50;99.90;;;;;;5076106;28;20200;-75
2022/12/28 01:24:17;;;;;;;0.80;0.80;;;-5.40;99.90;;;;;;5093905;28;20206;-73
2022/12/28 01:26:43;;;;;;;0.90;0.90;;;-5.40;99.90;;;;;;5094093;28;20562;-72
2022/12/28 01:29:09;;;;;;;1.10;1.08;;;-5.40;99.90;;;;;;5094018;28;20748;-73
2022/12/28 01:31:35;;;;;;;0.80;0.80;;;-5.40;99.90;;;;;;5075686;28;20200;-73
2022/12/28 01:34:01;;;;;;;0.80;0.80;;;-5.40;99.90;;;;;;5075845;28;20193;-75
2022/12/28 01:36:30;;;;;;;0.77;0.77;;;-5.40;99.90;;;;;;5075514;28;20208;-73
2022/12/28 01:39:02;;;;;;;0.85;0.85;;;-5.40;99.90;;;;;;5056993;28;20276;-73
2022/12/28 01:41:29;;;;;;;0.80;0.80;;;-5.40;99.90;;;;;;5070333;28;20202;-73
2022/12/28 01:43:58;;;;;;;0.90;0.90;;;-5.40;99.90;;;;;;5073553;28;20203;-73
2022/12/28 01:46:46;;;;;;;0.80;0.80;;;-5.40;99.90;;;;;;5073574;28;20197;-73
2022/12/28 01:49:20;;;;;;;0.80;0.80;;;-5.40;99.90;;;;;;5072171;28;20201;-74
2022/12/28 01:52:18;;;;;;;0.90;0.90;;;-5.40;99.90;;;;;;5072607;28;20250;-73
2022/12/28 01:54:52;;;;;;;0.80;0.80;;;-5.40;99.90;;;;;;5071526;28;20663;-74
2022/12/28 01:57:23;;;;;;;1.13;1.10;;;-5.40;99.90;;;;;;5071866;28;20272;-74
2022/12/28 01:59:56;;;;;;;0.80;0.80;;;-5.40;99.90;;;;;;5071981;28;20200;-74
2022/12/28 02:02:22;;;;;;;0.80;0.80;;;-5.40;99.90;;;;;;5082837;28;20201;-74
2022/12/28 02:04:48;;;;;;;0.90;0.90;;;-5.50;99.90;;;;;;5103561;28;20202;-74
2022/12/28 02:07:22;;;;;;;0.80;0.80;;;-5.50;99.90;;;;;;5093320;28;20212;-74
2022/12/28 02:09:48;;;;;;;0.80;0.80;;;-5.60;99.90;;;;;;5075187;28;20245;-74
2022/12/28 02:12:16;;;;;;;0.80;0.80;;;-5.70;99.90;;;;;;5093320;28;20744;-74
2022/12/28 02:14:43;;;;;;;0.80;0.80;;;-5.80;99.90;;;;;;5074777;28;20194;-74
2022/12/28 02:17:10;;;;;;;0.80;0.80;;;-5.90;99.90;;;;;;5075051;28;20203;-74
2022/12/28 02:19:44;;;;;;;0.70;0.70;;;-5.90;99.90;;;;;;5074775;28;21366;-74
2022/12/28 02:22:24;;;;;;;0.90;0.90;;;-6.00;99.90;;;;;;5093159;28;20271;-72
2022/12/28 02:25:05;;;;;;;0.90;0.90;;;-6.00;99.90;;;;;;5074778;28;20198;-73
2022/12/28 02:28:15;;;;;;;0.80;0.80;;;-6.10;99.90;;;;;;5074527;28;20650;-72
2022/12/28 02:30:55;;;;;;;0.80;0.80;;;-6.10;99.90;;;;;;5071999;28;20236;-73
2022/12/28 02:33:43;;;;;;;0.80;0.80;;;-6.20;99.90;;;;;;5074330;28;20249;-73
2022/12/28 02:36:31;;;;;;;0.90;0.90;;;-6.20;99.90;;;;;;5092843;28;20204;-73
2022/12/28 02:39:02;;;;;;;0.73;0.73;;;-6.30;99.90;;;;;;5092891;28;20199;-72
2022/12/28 02:41:31;;;;;;;0.80;0.80;;;-6.30;99.90;;;;;;5092617;28;20592;-72
2022/12/28 02:43:58;;;;;;;0.80;0.80;;;-6.40;99.90;;;;;;5074424;28;20228;-72
2022/12/28 02:52:15;;;;;;;0.80;0.80;;;-6.40;99.90;;;;;;5092889;28;20287;-72
2022/12/28 02:58:03;;;;;;;0.80;0.80;;;-6.40;99.90;;;;;;5092335;28;20202;-73
2022/12/28 03:00:53;;;;;;;0.90;0.90;;;-6.40;99.90;;;;;;5073617;28;20192;-73
2022/12/28 03:03:41;;;;;;;0.90;0.90;;;-6.40;99.90;;;;;;5092015;28;20680;-73
2022/12/28 03:09:35;;;;;;;0.80;0.80;;;-6.50;99.90;;;;;;5091954;28;20235;-73
2022/12/28 03:12:26;;;;;;;0.80;0.80;;;-6.60;99.90;;;;;;5092132;28;20643;-73
2022/12/28 03:15:12;;;;;;;0.80;0.80;;;-6.60;99.90;;;;;;5091611;28;20192;-74
2022/12/28 03:31:39;;;;;;;0.80;0.80;;;-6.20;99.90;;;;;;5071747;28;20211;-73
2022/12/28 03:34:06;;;;;;;0.77;0.77;;;-6.30;99.90;;;;;;5053630;28;20690;-73
2022/12/28 03:37:00;;;;;;;2.57;2.00;;;-6.30;99.90;;;;;;5069949;28;20240;-73
2022/12/28 03:39:43;;;;;;;0.90;0.90;;;-6.30;99.90;;;;;;5089591;28;20870;-74
2022/12/28 03:45:25;;;;;;;1.40;1.30;;;-6.30;99.90;;;;;;5091858;28;20210;-73
2022/12/28 03:47:55;;;;;;;0.80;0.80;;;-6.30;99.90;;;;;;5091579;28;20268;-73
2022/12/28 03:50:25;;;;;;;0.80;0.80;;;-6.40;99.90;;;;;;5091449;28;20184;-72
2022/12/28 03:52:54;;;;;;;0.90;0.90;;;-6.40;99.90;;;;;;5091575;28;20196;-73
2022/12/28 03:55:20;;;;;;;0.90;0.90;;;-6.40;99.90;;;;;;5053141;28;20228;-74
2022/12/28 03:57:45;;;;;;;0.80;0.80;;;-6.40;99.90;;;;;;5084186;28;20492;-74
2022/12/28 04:00:11;;;;;;;0.90;0.90;;;-6.40;99.90;;;;;;5091628;28;20269;-73
2022/12/28 04:02:37;;;;;;;0.80;0.80;;;-6.40;99.90;;;;;;5090233;28;20235;-74
2022/12/28 04:05:07;;;;;;;0.80;0.80;;;-6.40;99.90;;;;;;5091465;28;20282;-74
2022/12/28 04:07:33;;;;;;;0.80;0.80;;;-6.40;99.90;;;;;;5073153;28;20232;-74
2022/12/28 04:09:58;;;;;;;0.80;0.80;;;-6.40;99.90;;;;;;5091821;28;20199;-74
2022/12/28 04:12:24;;;;;;;0.83;0.83;;;-6.50;99.90;;;;;;5069929;28;20208;-74
2022/12/28 04:14:53;;;;;;;0.90;0.90;;;-6.50;99.90;;;;;;5070160;28;20208;-74
2022/12/28 04:17:18;;;;;;;0.90;0.90;;;-6.50;99.90;;;;;;5070178;28;20569;-73
2022/12/28 04:19:44;;;;;;;0.80;0.80;;;-6.40;99.90;;;;;;5069969;28;20228;-73
2022/12/28 04:22:13;;;;;;;0.90;0.90;;;-6.40;99.90;;;;;;5069896;28;20196;-74
2022/12/28 04:24:41;;;;;;;0.90;0.90;;;-6.40;99.90;;;;;;5071001;28;20253;-74
2022/12/28 04:27:06;;;;;;;1.00;1.00;;;-6.50;99.90;;;;;;5069782;28;20193;-73
2022/12/28 04:29:32;;;;;;;0.80;0.80;;;-6.50;99.90;;;;;;5079508;28;20199;-73
2022/12/28 04:31:58;;;;;;;1.03;1.03;;;-6.50;99.90;;;;;;5095412;28;20200;-73
2022/12/28 04:34:24;;;;;;;0.90;0.90;;;-6.60;99.90;;;;;;5076697;28;20549;-73
2022/12/28 04:36:49;;;;;;;0.90;0.90;;;-6.60;99.90;;;;;;5076913;28;20208;-73
2022/12/28 04:39:15;;;;;;;0.90;0.90;;;-6.70;99.90;;;;;;5077832;28;20715;-73
2022/12/28 04:41:41;;;;;;;0.90;0.90;;;-6.70;99.90;;;;;;5074694;28;20196;-73
2022/12/28 04:44:07;;;;;;;0.80;0.80;;;-6.80;99.90;;;;;;5075839;28;20246;-73
2022/12/28 04:46:32;;;;;;;0.80;0.80;;;-6.80;99.90;;;;;;5076557;28;20232;-73
2022/12/28 04:49:07;;;;;;;0.80;0.80;;;-6.90;99.90;;;;;;5095293;28;20200;-74
2022/12/28 04:51:34;;;;;;;0.80;0.80;;;-7.00;99.90;;;;;;5094702;28;20261;-73
2022/12/28 04:54:02;;;;;;;0.90;0.90;;;-7.00;99.90;;;;;;5094883;28;20241;-73
2022/12/28 04:56:28;;;;;;;0.87;0.87;;;-7.00;99.90;;;;;;5094602;28;20606;-74
2022/12/28 04:58:55;;;;;;;0.90;0.90;;;-7.00;99.90;;;;;;5076739;28;20238;-73
2022/12/28 05:01:21;;;;;;;0.80;0.80;;;-7.00;99.90;;;;;;5076344;28;20238;-73
2022/12/28 05:03:48;;;;;;;0.70;0.70;;;-7.00;99.90;;;;;;5076657;28;20279;-73
2022/12/28 05:06:16;;;;;;;0.80;0.80;;;-7.00;99.90;;;;;;5076269;28;20710;-73
2022/12/28 05:08:43;;;;;;;0.97;0.97;;;-7.00;99.90;;;;;;5094228;28;20204;-72
2022/12/28 05:11:17;;;;;;;0.90;0.90;;;-6.90;99.90;;;;;;5096798;28;20264;-73
2022/12/28 05:13:43;;;;;;;0.90;0.90;;;-6.90;99.90;;;;;;5096803;28;20206;-74
2022/12/28 05:16:15;;;;;;;0.80;0.80;;;-6.80;99.90;;;;;;5096272;28;20238;-73
2022/12/28 05:18:44;;;;;;;0.80;0.80;;;-6.80;99.90;;;;;;5114643;28;20670;-73
2022/12/28 05:21:16;;;;;;;0.87;0.87;;;-6.80;99.90;;;;;;5096427;28;20198;-72
2022/12/28 05:23:42;;;;;;;1.10;1.10;;;-6.80;99.90;;;;;;5096448;28;20244;-73
2022/12/28 05:26:11;;;;;;;0.80;0.80;;;-6.80;99.90;;;;;;5096598;28;20211;-74
2022/12/28 05:28:37;;;;;;;0.90;0.90;;;-6.70;99.90;;;;;;5096429;28;20576;-73
2022/12/28 05:31:06;;;;;;;0.90;0.90;;;-6.70;99.90;;;;;;5096724;28;20192;-72
2022/12/28 05:33:34;;;;;;;0.80;0.80;;;-6.70;99.90;;;;;;5093905;28;20204;-73
2022/12/28 05:36:07;;;;;;;0.87;0.87;;;-6.70;99.90;;;;;;5093971;28;20584;-75
2022/12/28 05:38:34;;;;;;;0.90;0.90;;;-6.70;99.90;;;;;;5093111;28;20196;-74
2022/12/28 05:41:11;;;;;;;0.80;0.80;;;-6.80;99.90;;;;;;5074723;28;20200;-75
2022/12/28 05:43:37;;;;;;;0.90;0.90;;;-6.80;99.90;;;;;;5075464;28;20245;-73
2022/12/28 05:46:12;;;;;;;0.80;0.80;;;-6.90;99.90;;;;;;5088295;28;20246;-74
2022/12/28 05:48:39;;;;;;;0.80;0.80;;;-7.00;99.90;;;;;;5073354;28;20242;-73
2022/12/28 05:51:14;;;;;;;0.80;0.80;;;-7.00;99.90;;;;;;5093482;28;20200;-74
2022/12/28 05:53:40;;;;;;;0.80;0.80;;;-7.00;99.90;;;;;;5076740;28;20196;-74
2022/12/28 05:56:12;;;;;;;0.80;0.80;;;-7.10;99.90;;;;;;5094357;28;20204;-73
2022/12/28 05:58:45;;;;;;;0.80;0.80;;;-7.10;99.90;;;;;;5075729;28;20607;-74
2022/12/28 06:01:17;;;;;;;0.90;0.90;;;-7.10;99.90;;;;;;5094132;28;20670;-73
2022/12/28 06:03:44;;;;;;;0.90;0.90;;;-7.20;99.90;;;;;;5073397;28;20196;-74
2022/12/28 06:06:15;;;;;;;0.90;0.90;;;-7.30;99.90;;;;;;5072148;28;20236;-73
2022/12/28 06:08:45;;;;;;;0.90;0.90;;;-7.20;99.90;;;;;;5072012;28;20671;-75
2022/12/28 06:11:13;;;;;;;0.77;0.77;;;-7.20;99.90;;;;;;5072155;28;20242;-74
2022/12/28 06:13:39;;;;;;;0.90;0.90;;;-7.20;99.90;;;;;;5073232;28;20221;-74
2022/12/28 06:16:07;;;;;;;0.80;0.80;;;-7.20;99.90;;;;;;5073413;28;20279;-73
2022/12/28 06:18:34;;;;;;;0.90;0.90;;;-7.10;99.90;;;;;;5073084;28;20196;-74
2022/12/28 06:21:08;;;;;;;1.17;1.17;;;-7.10;99.90;;;;;;5071855;28;20228;-74
2022/12/28 06:23:35;;;;;;;0.80;0.80;;;-7.00;99.90;;;;;;5071679;28;20197;-74
2022/12/28 06:26:02;;;;;;;1.30;1.20;;;-7.00;99.90;;;;;;5075544;28;20201;-74
2022/12/28 06:28:28;;;;;;;2.30;2.10;;;-7.00;99.90;;;;;;5075031;28;20282;-74
2022/12/28 06:31:24;;;;;;;0.80;0.80;;;-7.10;99.90;;;;;;5075207;28;20283;-75
2022/12/28 06:33:55;;;;;;;0.90;0.90;;;-7.10;99.90;;;;;;5073246;28;20211;-74
2022/12/28 06:36:45;;;;;;;0.90;0.90;;;-7.10;99.90;;;;;;5074595;28;20246;-75
2022/12/28 06:39:14;;;;;;;0.80;0.80;;;-7.10;99.90;;;;;;5093100;28;20200;-75
2022/12/28 06:41:40;;;;;;;0.90;0.90;;;-7.10;99.90;;;;;;5075104;28;20665;-74
2022/12/28 06:44:08;;;;;;;1.63;1.53;;;-7.20;99.90;;;;;;5093379;28;20196;-73
2022/12/28 06:46:37;;;;;;;0.97;0.97;;;-7.20;99.90;;;;;;5075492;28;20203;-74
2022/12/28 06:49:03;;;;;;;0.90;0.90;;;-7.20;99.90;;;;;;5093020;28;20537;-73
2022/12/28 06:51:34;;;;;;;0.90;0.90;;;-7.20;99.90;;;;;;5093225;28;20188;-73
2022/12/28 06:54:03;;;;;;;0.80;0.80;;;-7.20;99.90;;;;;;5076383;28;20267;-73
2022/12/28 06:56:31;;;;;;;0.80;0.80;;;-7.20;99.90;;;;;;5092677;28;20963;-73
2022/12/28 06:59:17;;;;;;;0.90;0.90;;;-7.20;99.90;;;;;;5093477;28;20223;-74
2022/12/28 07:01:45;;;;;;;0.90;0.90;;;-7.20;99.90;;;;;;5073731;28;20208;-74
2022/12/28 07:04:11;;;;;;;0.90;0.90;;;-7.20;99.90;;;;;;5091074;28;20207;-74
2022/12/28 07:06:42;;;;;;;0.90;0.90;;;-7.20;99.90;;;;;;5092666;28;20247;-73
2022/12/28 07:09:13;;;;;;;0.90;0.90;;;-7.20;99.90;;;;;;5092247;28;20657;-73
2022/12/28 07:11:39;;;;;;;0.80;0.80;;;-7.20;99.90;;;;;;5074584;28;20196;-73
2022/12/28 07:14:05;;;;;;;0.90;0.90;;;-7.10;99.90;;;;;;5073949;28;20207;-74
2022/12/28 07:16:56;;;;;;;0.90;0.90;;;-7.10;99.90;;;;;;5093103;28;20212;-73
2022/12/28 07:19:21;;;;;;;0.90;0.90;;;-7.10;99.90;;;;;;5054684;28;20208;-73
2022/12/28 07:21:59;;;;;;;0.87;0.87;;;-7.00;99.90;;;;;;5058602;28;20189;-75
2022/12/28 07:28:40;;;;;;;1.60;1.50;;;-6.70;99.90;;;;;;5093966;28;20202;-74
2022/12/28 07:38:11;;;;;;;0.87;0.87;;;-6.10;99.90;;;;;;5011193;28;20339;-76
2022/12/28 07:41:35;;;;;;;2.03;1.93;;;-6.00;99.90;;;;;;5010093;28;20795;-75
2022/12/28 07:44:13;;;;;;;1.00;1.00;;;-5.90;99.90;;;;;;4955807;28;20203;-74
2022/12/28 07:46:48;;;;;;;0.80;0.80;;;-5.90;99.90;;;;;;5009783;28;20289;-74
2022/12/28 07:49:17;;;;;;;0.80;0.80;;;-5.90;99.90;;;;;;5010751;28;20230;-75
2022/12/28 07:52:26;;;;;;;0.80;0.80;;;-5.80;99.90;;;;;;5010861;28;20264;-76
2022/12/28 07:58:53;;;;;;;0.80;0.80;;;-5.70;99.90;;;;;;5009388;28;20354;-75
2022/12/28 08:01:57;;;;;;;0.90;0.90;;;-5.60;99.90;;;;;;5004379;28;20284;-74
2022/12/28 08:04:46;;;;;;;0.90;0.90;;;-5.60;99.90;;;;;;4951804;29;20205;-75
2022/12/28 08:07:43;;;;;;;0.90;0.90;;;-5.60;99.90;;;;;;4956783;28;20603;-74
2022/12/28 08:10:24;;;;;;;0.83;0.83;;;-5.50;99.90;;;;;;4976914;28;20238;-74
2022/12/28 08:16:23;;;;;;;0.70;0.70;;;-5.50;99.90;;;;;;4990748;28;20666;-75
2022/12/28 08:19:38;;;;;;;0.90;0.90;;;-5.40;99.90;;;;;;4982147;28;20202;-76
2022/12/28 08:22:19;;;;;;;0.80;0.80;;;-5.40;99.90;;;;;;4993912;28;20205;-77
2022/12/28 08:25:16;;;;;;;0.80;0.80;;;-5.40;99.90;;;;;;4993557;28;20229;-73
2022/12/28 08:27:59;;;;;;;1.20;1.20;;;-5.40;99.90;;;;;;4998960;28;20218;-73
2022/12/28 08:31:11;;;;;;;0.90;0.90;;;-5.30;99.90;;;;;;4997850;28;20202;-75
2022/12/28 08:37:44;;;;;;;0.80;0.80;;;-5.30;99.90;;;;;;4914920;29;20708;-74
2022/12/28 08:40:13;;;;;;;1.10;1.10;;;-5.30;99.90;;;;;;4908655;28;20319;-73
2022/12/28 08:43:13;;;;;;;0.80;0.80;;;-5.30;99.90;;;;;;5070909;28;21566;-75
2022/12/28 08:49:16;;;;;;;0.80;0.80;;;-5.20;99.90;;;;;;5092173;28;20187;-75
2022/12/28 08:52:36;;;;;;;0.93;0.93;;;-5.20;99.90;;;;;;5095334;28;20548;-75
2022/12/28 08:55:02;;;;;;;0.70;0.70;;;-5.20;99.90;;;;;;5077576;28;20200;-75
2022/12/28 08:57:28;;;;;;;0.80;0.80;;;-5.20;99.90;;;;;;5073724;28;20253;-75
2022/12/28 09:00:19;;;;;;;0.80;0.80;;;-5.20;99.90;;;;;;5093551;28;20216;-75
2022/12/28 09:06:18;;;;;;;;;;;;;;;;;;;;;
2022/12/28 09:12:20;;;;;;;1.03;1.03;;;-5.00;99.90;;;;;;5092648;28;20241;-74
2022/12/28 09:14:45;;;;;;;0.80;0.80;;;-5.00;99.90;;;;;;5096383;28;20722;-72
2022/12/28 09:20:30;;;;;;;0.70;0.70;;;-4.90;99.90;;;;;;5033317;28;20228;-73
2022/12/28 09:23:33;;;;;;;0.80;0.80;;;-4.90;99.90;;;;;;5099506;28;20600;-75
2022/12/28 09:26:18;;;;;;;0.83;0.83;;;-4.90;99.90;;;;;;5096647;28;20241;-74
2022/12/28 09:31:52;;;;;;;0.80;0.80;;;-4.80;99.90;;;;;;5096563;28;20215;-73
2022/12/28 09:35:24;;;;;;;0.70;0.70;;;-4.80;99.90;;;;;;5100632;28;20225;-75
2022/12/28 09:38:01;;;;;;;0.80;0.80;;;-4.80;99.90;;;;;;5028156;28;20210;-74
2022/12/28 09:41:34;;;;;;;0.70;0.70;;;-4.70;99.90;;;;;;5037288;28;20744;-74
2022/12/28 09:44:37;;;;;;;0.73;0.73;;;-4.60;99.90;;;;;;5000513;28;20204;-75
2022/12/28 09:48:01;;;;;;;0.80;0.80;;;-4.60;99.90;;;;;;5006979;28;20336;-74
2022/12/28 09:51:19;;;;;;;0.80;0.80;;;-4.50;99.90;;;;;;4999755;28;20207;-73
2022/12/28 09:56:56;;;;;;;1.50;1.40;;;-4.40;99.90;;;;;;4940741;29;20229;-74
2022/12/28 09:59:36;;;;;;;0.90;0.90;;;-4.40;99.90;;;;;;4988664;28;20238;-75
2022/12/28 10:02:47;;;;;;;0.80;0.80;;;-4.40;99.90;;;;;;4978547;28;20301;-75
2022/12/28 10:05:26;;;;;;;0.70;0.70;;;-4.40;99.90;;;;;;4989204;28;20498;-76
2022/12/28 10:08:42;;;;;;;0.70;0.70;;;-4.30;99.90;;;;;;4986991;28;20658;-74
2022/12/28 10:11:33;;;;;;;2.30;2.20;;;-4.30;99.90;;;;;;4994916;28;20199;-74
2022/12/28 10:14:33;;;;;;;1.05;1.05;;;-4.20;99.90;;;;;;4993327;28;20323;-74
2022/12/28 10:17:43;;;;;;;1.30;1.23;;;-4.20;99.90;;;;;;4956583;28;20225;-73
2022/12/28 10:27:14;;;;;;;0.90;0.90;;;-4.10;99.90;;;;;;4979246;28;20223;-72
2022/12/28 10:30:08;;;;;;;0.80;0.80;;;-4.10;99.90;;;;;;4960471;28;20219;-74
2022/12/28 10:44:00;;;;;;;0.70;0.70;;;-4.10;99.90;;;;;;4953310;28;20713;-76
2022/12/28 10:47:02;;;;;;;0.67;0.67;;;-4.10;99.90;;;;;;4933746;29;20685;-75
2022/12/28 10:49:50;;;;;;;1.63;1.52;;;-4.10;99.90;;;;;;4933923;29;20225;-75
2022/12/28 10:52:16;;;;;;;0.70;0.70;;;-4.10;99.90;;;;;;4938105;29;20238;-73
2022/12/28 10:55:00;;;;;;;1.50;1.40;;;-4.10;99.90;;;;;;4923139;29;20205;-74
2022/12/28 10:57:38;;;;;;;0.80;0.80;;;-4.10;99.90;;;;;;4925975;29;20205;-73
2022/12/28 11:07:40;;;;;;;0.87;0.87;;;-4.10;99.90;;;;;;4962632;28;20268;-74
2022/12/28 11:10:38;;;;;;;0.80;0.80;;;-4.00;99.90;;;;;;4908627;29;20640;-74
2022/12/28 11:23:56;;;;;;;0.80;0.80;;;-3.90;99.90;;;;;;4858314;29;20219;-75
2022/12/28 11:27:09;;;;;;;1.08;1.02;;;-3.90;99.90;;;;;;4857509;29;20407;-75
2022/12/28 11:34:20;;;;;;;0.80;0.80;;;-3.80;99.90;;;;;;4840514;29;20220;-74
2022/12/28 11:44:04;;;;;;;0.70;0.70;;;-3.70;99.90;;;;;;4838663;29;20277;-74
2022/12/28 11:47:19;;;;;;;0.80;0.80;;;-3.70;99.90;;;;;;4875546;29;20338;-75
2022/12/28 11:49:46;;;;;;;0.90;0.90;;;-3.70;99.90;;;;;;4882672;29;20700;-74
2022/12/28 11:56:00;;;;;;;3.13;2.08;;;-3.70;99.90;;;;;;4897781;29;20229;-74
2022/12/28 11:59:03;;;;;;;0.82;0.82;;;-3.70;99.90;;;;;;4992872;28;20199;-72
2022/12/28 12:01:44;;;;;;;2.97;2.65;;;-3.70;99.90;;;;;;4966633;28;20698;-75
2022/12/28 12:07:49;;;;;;;0.70;0.70;;;-3.60;99.90;;;;;;4989588;28;20207;-74
2022/12/28 12:10:35;;;;;;;0.70;0.70;;;-3.60;99.90;;;;;;4990597;28;20733;-76
2022/12/28 12:19:39;;;;;;;0.85;0.85;;;-3.50;99.90;;;;;;5052126;28;20212;-74
2022/12/28 12:22:51;;;;;;;0.80;0.80;;;-3.40;99.90;;;;;;5051845;28;20244;-75
2022/12/28 12:32:04;;;;;;;1.08;1.02;;;-3.30;99.90;;;;;;5030116;28;20324;-74
2022/12/28 12:38:20;;;;;;;0.80;0.80;;;-3.40;99.90;;;;;;5049476;28;20733;-74
2022/12/28 12:41:05;;;;;;;0.80;0.80;;;-3.30;99.90;;;;;;5049231;28;20679;-75
2022/12/28 12:44:24;;;;;;;0.98;0.98;;;-3.30;99.90;;;;;;5045794;28;20194;-75
2022/12/28 12:51:22;;;;;;;0.70;0.70;;;-3.30;99.90;;;;;;5047010;28;20679;-73
2022/12/28 13:01:01;;;;;;;0.80;0.80;;;-3.30;99.90;;;;;;4988675;28;20266;-72
2022/12/28 13:04:04;;;;;;;0.70;0.70;;;-3.30;99.90;;;;;;4994182;28;20351;-75
2022/12/28 13:06:38;;;;;;;0.80;0.80;;;-3.20;99.90;;;;;;4992387;28;20263;-73
2022/12/28 13:09:07;;;;;;;0.70;0.70;;;-3.20;99.90;;;;;;4992294;28;20262;-74
2022/12/28 13:11:37;;;;;;;0.90;0.90;;;-3.20;99.90;;;;;;4996118;28;20203;-74
2022/12/28 13:14:23;;;;;;;0.80;0.80;;;-3.20;99.90;;;;;;4994149;28;20294;-76
2022/12/28 13:16:53;;;;;;;0.70;0.70;;;-3.10;99.90;;;;;;4992726;28;20615;-75
2022/12/28 13:19:24;;;;;;;0.87;0.87;;;-3.10;99.90;;;;;;4992034;28;20702;-76
2022/12/28 13:21:54;;;;;;;0.70;0.70;;;-3.10;99.90;;;;;;4993044;28;20204;-75
2022/12/28 13:24:57;;;;;;;0.80;0.80;;;-3.10;99.90;;;;;;4992873;28;20219;-77
2022/12/28 13:27:30;;;;;;;0.90;0.90;;;-3.10;99.90;;;;;;4996082;28;20201;-75
2022/12/28 13:30:30;;;;;;;0.85;0.85;;;-3.10;99.90;;;;;;5074821;28;20570;-75
2022/12/28 13:33:02;;;;;;;0.70;0.70;;;-3.10;99.90;;;;;;5076418;28;20685;-76
2022/12/28 13:39:11;;;;;;;0.80;0.80;;;-3.10;99.90;;;;;;4989056;28;20238;-74
2022/12/28 13:57:38;;;;;;;0.88;0.88;;;-2.90;99.90;;;;;;5032040;28;20217;-72
2022/12/28 14:00:32;;;;;;;0.73;0.73;;;-2.90;99.90;;;;;;5031516;28;20194;-73
2022/12/28 14:02:58;;;;;;;0.70;0.70;;;-2.90;99.90;;;;;;5017509;28;20598;-73
2022/12/28 14:09:22;;;;;;;0.80;0.80;;;-2.90;99.90;;;;;;4987407;28;20240;-75
2022/12/28 14:25:43;;;;;;;0.77;0.77;;;-2.90;99.90;;;;;;4981057;28;20246;-74
2022/12/28 14:28:42;;;;;;;0.70;0.70;;;-3.00;99.90;;;;;;4966186;28;20301;-75
2022/12/28 14:31:31;;;;;;;0.70;0.70;;;-3.00;99.90;;;;;;4992686;28;20741;-75
2022/12/28 14:34:32;;;;;;;0.70;0.70;;;-3.00;99.90;;;;;;4985812;28;20230;-75
2022/12/28 14:37:48;;;;;;;0.80;0.80;;;-2.90;99.90;;;;;;4986569;28;20297;-75
2022/12/28 14:41:04;;;;;;;0.70;0.70;;;-2.90;99.90;;;;;;4969725;28;20768;-75
2022/12/28 14:43:52;;;;;;;0.70;0.70;;;-2.90;99.90;;;;;;4935753;28;20210;-75
2022/12/28 14:50:35;;;;;;;0.70;0.70;;;-2.90;99.90;;;;;;4965766;28;20271;-74
2022/12/28 14:53:44;;;;;;;0.70;0.70;;;-2.80;99.90;;;;;;4972519;28;20208;-76
2022/12/28 14:56:28;;;;;;;0.80;0.80;;;-2.80;99.90;;;;;;5017541;28;20596;-76
2022/12/28 14:59:44;;;;;;;0.70;0.70;;;-2.70;99.90;;;;;;5031298;28;20642;-75
2022/12/28 15:06:12;;;;;;;0.80;0.80;;;-2.70;99.90;;;;;;4994769;28;20207;-74
2022/12/28 15:09:07;;;;;;;0.75;0.75;;;-2.60;99.90;;;;;;4973825;28;20238;-73
2022/12/28 15:11:32;;;;;;;0.73;0.73;;;-2.60;99.90;;;;;;4972635;28;20222;-74
2022/12/28 15:14:00;;;;;;;0.73;0.73;;;-2.60;99.90;;;;;;5006709;28;20222;-73
2022/12/28 15:16:26;;;;;;;0.80;0.80;;;-2.50;99.90;;;;;;4990268;28;20305;-74
2022/12/28 15:18:52;;;;;;;0.70;0.70;;;-2.50;99.90;;;;;;4990377;28;20208;-74
2022/12/28 15:21:20;;;;;;;0.70;0.70;;;-2.50;99.90;;;;;;4990903;28;20206;-73
2022/12/28 15:23:53;;;;;;;0.80;0.80;;;-2.50;99.90;;;;;;5007035;28;20689;-74
2022/12/28 15:26:29;;;;;;;0.70;0.70;;;-2.50;99.90;;;;;;4990119;28;20235;-74
2022/12/28 15:28:55;;;;;;;0.80;0.80;;;-2.40;99.90;;;;;;5007875;28;20261;-73
2022/12/28 15:31:21;;;;;;;0.80;0.80;;;-2.40;99.90;;;;;;4989937;28;20207;-74
2022/12/28 15:33:47;;;;;;;0.60;0.60;;;-2.40;99.90;;;;;;4990374;28;20588;-74
2022/12/28 15:36:19;;;;;;;0.90;0.90;;;-2.40;99.90;;;;;;4990241;28;20234;-74
2022/12/28 15:38:45;;;;;;;0.80;0.80;;;-2.40;99.90;;;;;;4992339;28;20236;-74
2022/12/28 15:43:59;;;;;;;0.90;0.90;;;-2.40;99.90;;;;;;5078661;28;20242;-74
2022/12/28 15:46:25;;;;;;;1.30;1.20;;;-2.30;99.90;;;;;;5054222;28;20565;-74
2022/12/28 15:49:05;;;;;;;0.90;0.90;;;-2.30;99.90;;;;;;5068633;28;20204;-75
2022/12/28 15:51:31;;;;;;;1.52;1.42;;;-2.30;99.90;;;;;;5074896;28;20619;-75
2022/12/28 15:53:56;;;;;;;0.70;0.70;;;-2.30;99.90;;;;;;5091994;28;20192;-75
2022/12/28 15:56:25;;;;;;;0.80;0.80;;;-2.30;99.90;;;;;;5073444;28;20212;-75
2022/12/28 15:58:56;;;;;;;0.80;0.80;;;-2.30;99.90;;;;;;5073581;28;20245;-74
2022/12/28 16:01:23;;;;;;;1.00;1.00;;;-2.20;99.90;;;;;;5086739;28;20279;-75
2022/12/28 16:03:54;;;;;;;0.77;0.77;;;-2.20;99.90;;;;;;5092040;28;20195;-74
2022/12/28 16:06:21;;;;;;;1.33;1.00;;;-2.20;99.90;;;;;;5091671;28;20709;-75
2022/12/28 16:08:54;;;;;;;0.80;0.80;;;-2.20;99.90;;;;;;5091411;28;20207;-74
2022/12/28 16:11:20;;;;;;;1.20;1.10;;;-2.20;99.90;;;;;;5091296;28;20212;-75
2022/12/28 16:13:54;;;;;;;1.05;1.05;;;-2.20;99.90;;;;;;5073492;28;20199;-74
2022/12/28 16:16:21;;;;;;;1.02;1.02;;;-2.20;99.90;;;;;;5073313;28;20254;-74
2022/12/28 16:18:52;;;;;;;2.90;2.70;;;-2.10;99.90;;;;;;5091772;28;20670;-74
2022/12/28 16:21:18;;;;;;;1.17;1.17;;;-2.10;99.90;;;;;;5073010;28;20192;-74
2022/12/28 16:23:44;;;;;;;0.63;0.63;;;-2.10;99.90;;;;;;5076318;28;20199;-75
2022/12/28 16:26:11;;;;;;;0.95;0.95;;;-2.20;99.90;;;;;;5095861;28;20267;-75
2022/12/28 16:28:47;;;;;;;1.00;1.00;;;-2.10;99.90;;;;;;5096170;28;20196;-74
2022/12/28 16:31:27;;;;;;;1.40;1.33;;;-2.10;99.90;;;;;;5098652;28;20267;-73
2022/12/28 16:34:05;;;;;;;1.25;1.15;;;-2.20;99.90;;;;;;5081766;28;20203;-75
2022/12/28 16:36:31;;;;;;;4.60;3.20;;;-2.10;99.90;;;;;;5092884;28;20552;-73
2022/12/28 16:38:57;;;;;;;0.70;0.70;;;-2.10;99.90;;;;;;5077380;28;20628;-74
2022/12/28 16:41:24;;;;;;;1.67;1.58;;;-2.10;99.90;;;;;;5077186;28;20204;-74
2022/12/28 16:43:50;;;;;;;2.10;1.90;;;-2.10;99.90;;;;;;5077242;28;20224;-74
2022/12/28 16:46:50;;;;;;;0.82;0.82;;;-2.10;99.90;;;;;;5101470;28;20207;-74
2022/12/28 16:49:26;;;;;;;1.98;1.45;;;-2.10;99.90;;;;;;5085793;28;20295;-75
2022/12/28 16:55:34;;;;;;;;;;;;;;;;;;;;;
2022/12/28 16:58:16;;;;;;;0.70;0.70;;;-2.10;99.90;;;;;;5096780;28;20260;-76
2022/12/28 17:00:53;;;;;;;0.90;0.90;;;-2.10;99.90;;;;;;5097789;28;20215;-74
2022/12/28 17:04:01;;;;;;;;;;;;;;;;;;;;;